sensor_id;sensor_type;location;lat;lon;timestamp;temperature;humidity
7518;DHT22;3800;48.922;9.444;2022-10-16T00:01:43;15.10;99.90
7518;DHT22;3800;48.922;9.444;2022-10-16T00:04:11;15.10;99.90
7518;DHT22;3800;48.922;9.444;2022-10-16T00:06:39;15.10;99.90
7518;DHT22;3800;48.922;9.444;2022-10-16T00:09:06;15.10;99.90
7518;DHT22;3800;48.922;9.444;2022-10-16T00:11:35;15.20;99.90
7518;DHT22;3800;48.922;9.444;2022-10-16T00:14:03;15.10;99.90
7518;DHT22;3800;48.922;9.444;2022-10-16T00:16:29;15.20;99.90
7518;DHT22;3800;48.922;9.444;2022-10-16T00:18:58;15.20;99.90
7518;DHT22;3800;48.922;9.444;2022-10-16T00:21:26;15.20;99.90
7518;DHT22;3800;48.922;9.444;2022-10-16T00:23:55;15.20;99.90
7518;DHT22;3800;48.922;9.444;2022-10-16T00:26:22;15.20;99.90
7518;DHT22;3800;48.922;9.444;2022-10-16T00:28:50;15.20;99.90
7518;DHT22;3800;48.922;9.444;2022-10-16T00:31:18;15.20;99.90
7518;DHT22;3800;48.922;9.444;2022-10-16T00:33:45;15.20;99.90
7518;DHT22;3800;48.922;9.444;2022-10-16T00:36:14;15.20;99.90
7518;DHT22;3800;48.922;9.444;2022-10-16T00:38:42;15.20;99.90
7518;DHT22;3800;48.922;9.444;2022-10-16T00:41:11;15.20;99.90
7518;DHT22;3800;48.922;9.444;2022-10-16T00:43:53;15.20;99.90
7518;DHT22;3800;48.922;9.444;2022-10-16T00:46:25;15.20;99.90
7518;DHT22;3800;48.922;9.444;2022-10-16T00:48:55;15.20;99.90
7518;DHT22;3800;48.922;9.444;2022-10-16T00:51:22;15.20;99.90
7518;DHT22;3800;48.922;9.444;2022-10-16T00:53:48;15.20;99.90
7518;DHT22;3800;48.922;9.444;2022-10-16T00:56:16;15.20;99.90
7518;DHT22;3800;48.922;9.444;2022-10-16T00:58:44;15.20;99.90
7518;DHT22;3800;48.922;9.444;2022-10-16T01:01:12;15.30;99.90
7518;DHT22;3800;48.922;9.444;2022-10-16T01:03:40;15.30;99.90
7518;DHT22;3800;48.922;9.444;2022-10-16T01:06:31;15.30;99.90
7518;DHT22;3800;48.922;9.444;2022-10-16T01:09:03;15.30;99.90
7518;DHT22;3800;48.922;9.444;2022-10-16T01:11:35;15.20;99.90
7518;DHT22;3800;48.922;9.444;2022-10-16T01:14:04;15.20;99.90
7518;DHT22;3800;48.922;9.444;2022-10-16T01:16:38;15.20;99.90
7518;DHT22;3800;48.922;9.444;2022-10-16T01:19:08;15.20;99.90
7518;DHT22;3800;48.922;9.444;2022-10-16T01:21:35;15.20;99.90
7518;DHT22;3800;48.922;9.444;2022-10-16T01:24:28;15.20;99.90
7518;DHT22;3800;48.922;9.444;2022-10-16T01:27:02;15.20;99.90
7518;DHT22;3800;48.922;9.444;2022-10-16T01:29:33;15.20;99.90
7518;DHT22;3800;48.922;9.444;2022-10-16T01:31:59;15.20;99.90
7518;DHT22;3800;48.922;9.444;2022-10-16T01:34:28;15.20;99.90
7518;DHT22;3800;48.922;9.444;2022-10-16T01:36:56;15.20;99.90
7518;DHT22;3800;48.922;9.444;2022-10-16T01:39:22;15.20;99.90
7518;DHT22;3800;48.922;9.444;2022-10-16T01:41:52;15.20;99.90
7518;DHT22;3800;48.922;9.444;2022-10-16T01:44:21;15.30;99.90
7518;DHT22;3800;48.922;9.444;2022-10-16T01:46:48;15.20;99.90
7518;DHT22;3800;48.922;9.444;2022-10-16T01:49:16;15.30;99.90
7518;DHT22;3800;48.922;9.444;2022-10-16T01:51:44;15.20;99.90
7518;DHT22;3800;48.922;9.444;2022-10-16T01:54:11;15.30;99.90
7518;DHT22;3800;48.922;9.444;2022-10-16T01:56:39;15.30;99.90
7518;DHT22;3800;48.922;9.444;2022-10-16T01:59:11;15.30;99.90
7518;DHT22;3800;48.922;9.444;2022-10-16T02:01:38;15.30;99.90
7518;DHT22;3800;48.922;9.444;2022-10-16T02:04:13;15.30;99.90
7518;DHT22;3800;48.922;9.444;2022-10-16T02:06:39;15.30;99.90
7518;DHT22;3800;48.922;9.444;2022-10-16T02:09:07;15.30;99.90
7518;DHT22;3800;48.922;9.444;2022-10-16T02:11:35;15.30;99.90
7518;DHT22;3800;48.922;9.444;2022-10-16T02:14:04;15.30;99.90
7518;DHT22;3800;48.922;9.444;2022-10-16T02:16:34;15.20;99.90
7518;DHT22;3800;48.922;9.444;2022-10-16T02:19:01;15.20;99.90
7518;DHT22;3800;48.922;9.444;2022-10-16T02:21:30;15.20;99.90
7518;DHT22;3800;48.922;9.444;2022-10-16T02:24:02;15.20;99.90
7518;DHT22;3800;48.922;9.444;2022-10-16T02:26:31;15.20;99.90
7518;DHT22;3800;48.922;9.444;2022-10-16T02:29:00;15.20;99.90
7518;DHT22;3800;48.922;9.444;2022-10-16T02:31:28;15.20;99.90
7518;DHT22;3800;48.922;9.444;2022-10-16T02:33:57;15.20;99.90
7518;DHT22;3800;48.922;9.444;2022-10-16T02:36:24;15.20;99.90
7518;DHT22;3800;48.922;9.444;2022-10-16T02:38:52;15.20;99.90
7518;DHT22;3800;48.922;9.444;2022-10-16T02:41:21;15.20;99.90
7518;DHT22;3800;48.922;9.444;2022-10-16T02:43:47;15.30;99.90
7518;DHT22;3800;48.922;9.444;2022-10-16T02:46:15;15.30;99.90
7518;DHT22;3800;48.922;9.444;2022-10-16T02:48:43;15.20;99.90
7518;DHT22;3800;48.922;9.444;2022-10-16T02:51:11;15.30;99.90
7518;DHT22;3800;48.922;9.444;2022-10-16T02:53:38;15.30;99.90
7518;DHT22;3800;48.922;9.444;2022-10-16T02:56:06;15.30;99.90
7518;DHT22;3800;48.922;9.444;2022-10-16T02:58:34;15.30;99.90
7518;DHT22;3800;48.922;9.444;2022-10-16T03:01:01;15.30;99.90
7518;DHT22;3800;48.922;9.444;2022-10-16T03:03:29;15.30;99.90
7518;DHT22;3800;48.922;9.444;2022-10-16T03:05:57;15.30;99.90
7518;DHT22;3800;48.922;9.444;2022-10-16T03:08:25;15.30;99.90
7518;DHT22;3800;48.922;9.444;2022-10-16T03:10:53;15.30;99.90
7518;DHT22;3800;48.922;9.444;2022-10-16T03:13:20;15.30;99.90
7518;DHT22;3800;48.922;9.444;2022-10-16T03:15:48;15.30;99.90
7518;DHT22;3800;48.922;9.444;2022-10-16T03:18:16;15.20;99.90
7518;DHT22;3800;48.922;9.444;2022-10-16T03:20:43;15.20;99.90
7518;DHT22;3800;48.922;9.444;2022-10-16T03:23:11;15.20;99.90
7518;DHT22;3800;48.922;9.444;2022-10-16T03:25:39;15.20;99.90
7518;DHT22;3800;48.922;9.444;2022-10-16T03:28:06;15.20;99.90
7518;DHT22;3800;48.922;9.444;2022-10-16T03:30:34;15.20;99.90
7518;DHT22;3800;48.922;9.444;2022-10-16T03:33:02;15.20;99.90
7518;DHT22;3800;48.922;9.444;2022-10-16T03:35:30;15.20;99.90
7518;DHT22;3800;48.922;9.444;2022-10-16T03:37:58;15.20;99.90
7518;DHT22;3800;48.922;9.444;2022-10-16T03:40:25;15.20;99.90
7518;DHT22;3800;48.922;9.444;2022-10-16T03:42:53;15.20;99.90
7518;DHT22;3800;48.922;9.444;2022-10-16T03:45:21;15.10;99.90
7518;DHT22;3800;48.922;9.444;2022-10-16T03:47:51;15.10;99.90
7518;DHT22;3800;48.922;9.444;2022-10-16T03:50:19;15.10;99.90
7518;DHT22;3800;48.922;9.444;2022-10-16T03:52:46;15.10;99.90
7518;DHT22;3800;48.922;9.444;2022-10-16T03:55:15;15.10;99.90
7518;DHT22;3800;48.922;9.444;2022-10-16T03:57:43;15.00;99.90
7518;DHT22;3800;48.922;9.444;2022-10-16T04:00:11;15.00;99.90
7518;DHT22;3800;48.922;9.444;2022-10-16T04:02:39;14.90;99.90
7518;DHT22;3800;48.922;9.444;2022-10-16T04:05:07;15.00;99.90
7518;DHT22;3800;48.922;9.444;2022-10-16T04:07:34;14.90;99.90
7518;DHT22;3800;48.922;9.444;2022-10-16T04:10:02;14.90;99.90
7518;DHT22;3800;48.922;9.444;2022-10-16T04:12:30;14.90;99.90
7518;DHT22;3800;48.922;9.444;2022-10-16T04:14:57;14.90;99.90
7518;DHT22;3800;48.922;9.444;2022-10-16T04:17:25;14.90;99.90
7518;DHT22;3800;48.922;9.444;2022-10-16T04:19:53;14.90;99.90
7518;DHT22;3800;48.922;9.444;2022-10-16T04:22:21;14.80;99.90
7518;DHT22;3800;48.922;9.444;2022-10-16T04:24:48;14.80;99.90
7518;DHT22;3800;48.922;9.444;2022-10-16T04:27:16;14.80;99.90
7518;DHT22;3800;48.922;9.444;2022-10-16T04:29:43;14.80;99.90
7518;DHT22;3800;48.922;9.444;2022-10-16T04:32:11;14.70;99.90
7518;DHT22;3800;48.922;9.444;2022-10-16T04:34:39;14.70;99.90
7518;DHT22;3800;48.922;9.444;2022-10-16T04:37:07;14.70;99.90
7518;DHT22;3800;48.922;9.444;2022-10-16T04:39:35;14.60;99.90
7518;DHT22;3800;48.922;9.444;2022-10-16T04:42:03;14.60;99.90
7518;DHT22;3800;48.922;9.444;2022-10-16T04:44:30;14.60;99.90
7518;DHT22;3800;48.922;9.444;2022-10-16T04:46:59;14.60;99.90
7518;DHT22;3800;48.922;9.444;2022-10-16T04:49:27;14.50;99.90
7518;DHT22;3800;48.922;9.444;2022-10-16T04:51:55;14.50;99.90
7518;DHT22;3800;48.922;9.444;2022-10-16T04:54:23;14.50;99.90
7518;DHT22;3800;48.922;9.444;2022-10-16T04:56:51;14.50;99.90
7518;DHT22;3800;48.922;9.444;2022-10-16T04:59:19;14.40;99.90
7518;DHT22;3800;48.922;9.444;2022-10-16T05:01:46;14.40;99.90
7518;DHT22;3800;48.922;9.444;2022-10-16T05:04:14;14.40;99.90
7518;DHT22;3800;48.922;9.444;2022-10-16T05:06:42;14.40;99.90
7518;DHT22;3800;48.922;9.444;2022-10-16T05:09:10;14.40;99.90
7518;DHT22;3800;48.922;9.444;2022-10-16T05:11:38;14.40;99.90
7518;DHT22;3800;48.922;9.444;2022-10-16T05:14:06;14.30;99.90
7518;DHT22;3800;48.922;9.444;2022-10-16T05:16:33;14.30;99.90
7518;DHT22;3800;48.922;9.444;2022-10-16T05:19:01;14.30;99.90
7518;DHT22;3800;48.922;9.444;2022-10-16T05:21:29;14.30;99.90
7518;DHT22;3800;48.922;9.444;2022-10-16T05:23:56;14.30;99.90
7518;DHT22;3800;48.922;9.444;2022-10-16T05:26:25;14.30;99.90
7518;DHT22;3800;48.922;9.444;2022-10-16T05:28:53;14.30;99.90
7518;DHT22;3800;48.922;9.444;2022-10-16T05:31:22;14.30;99.90
7518;DHT22;3800;48.922;9.444;2022-10-16T05:33:50;14.30;99.90
7518;DHT22;3800;48.922;9.444;2022-10-16T05:36:17;14.30;99.90
7518;DHT22;3800;48.922;9.444;2022-10-16T05:38:50;14.30;99.90
7518;DHT22;3800;48.922;9.444;2022-10-16T05:41:13;14.30;99.90
7518;DHT22;3800;48.922;9.444;2022-10-16T05:43:41;14.30;99.90
7518;DHT22;3800;48.922;9.444;2022-10-16T05:46:09;14.30;99.90
7518;DHT22;3800;48.922;9.444;2022-10-16T05:48:37;14.30;99.90
7518;DHT22;3800;48.922;9.444;2022-10-16T05:51:06;14.30;99.90
7518;DHT22;3800;48.922;9.444;2022-10-16T05:53:33;14.30;99.90
7518;DHT22;3800;48.922;9.444;2022-10-16T05:56:00;14.20;99.90
7518;DHT22;3800;48.922;9.444;2022-10-16T05:58:30;14.20;99.90
7518;DHT22;3800;48.922;9.444;2022-10-16T06:00:59;14.20;99.90
7518;DHT22;3800;48.922;9.444;2022-10-16T06:03:26;14.30;99.90
7518;DHT22;3800;48.922;9.444;2022-10-16T06:05:54;14.20;99.90
7518;DHT22;3800;48.922;9.444;2022-10-16T06:08:22;14.30;99.90
7518;DHT22;3800;48.922;9.444;2022-10-16T06:10:59;14.20;99.90
7518;DHT22;3800;48.922;9.444;2022-10-16T06:13:17;14.20;99.90
7518;DHT22;3800;48.922;9.444;2022-10-16T06:15:45;14.20;99.90
7518;DHT22;3800;48.922;9.444;2022-10-16T06:18:13;14.20;99.90
7518;DHT22;3800;48.922;9.444;2022-10-16T06:20:42;14.20;99.90
7518;DHT22;3800;48.922;9.444;2022-10-16T06:23:10;14.20;99.90
7518;DHT22;3800;48.922;9.444;2022-10-16T06:25:37;14.20;99.90
7518;DHT22;3800;48.922;9.444;2022-10-16T06:28:05;14.20;99.90
7518;DHT22;3800;48.922;9.444;2022-10-16T06:30:33;14.20;99.90
7518;DHT22;3800;48.922;9.444;2022-10-16T06:33:01;14.30;99.90
7518;DHT22;3800;48.922;9.444;2022-10-16T06:35:28;14.30;99.90
7518;DHT22;3800;48.922;9.444;2022-10-16T06:37:57;14.30;99.90
7518;DHT22;3800;48.922;9.444;2022-10-16T06:40:24;14.30;99.90
7518;DHT22;3800;48.922;9.444;2022-10-16T06:42:54;14.30;99.90
7518;DHT22;3800;48.922;9.444;2022-10-16T06:45:23;14.30;99.90
7518;DHT22;3800;48.922;9.444;2022-10-16T06:47:51;14.30;99.90
7518;DHT22;3800;48.922;9.444;2022-10-16T06:50:18;14.30;99.90
7518;DHT22;3800;48.922;9.444;2022-10-16T06:52:46;14.30;99.90
7518;DHT22;3800;48.922;9.444;2022-10-16T06:55:14;14.40;99.90
7518;DHT22;3800;48.922;9.444;2022-10-16T06:57:43;14.40;99.90
7518;DHT22;3800;48.922;9.444;2022-10-16T07:00:10;14.40;99.90
7518;DHT22;3800;48.922;9.444;2022-10-16T07:02:38;14.50;99.90
7518;DHT22;3800;48.922;9.444;2022-10-16T07:05:06;14.50;99.90
7518;DHT22;3800;48.922;9.444;2022-10-16T07:07:34;14.50;99.90
7518;DHT22;3800;48.922;9.444;2022-10-16T07:10:03;14.50;99.90
7518;DHT22;3800;48.922;9.444;2022-10-16T07:12:31;14.50;99.90
7518;DHT22;3800;48.922;9.444;2022-10-16T07:14:58;14.60;99.90
7518;DHT22;3800;48.922;9.444;2022-10-16T07:17:26;14.60;99.90
7518;DHT22;3800;48.922;9.444;2022-10-16T07:19:53;14.60;99.90
7518;DHT22;3800;48.922;9.444;2022-10-16T07:22:21;14.70;99.90
7518;DHT22;3800;48.922;9.444;2022-10-16T07:24:49;14.80;99.90
7518;DHT22;3800;48.922;9.444;2022-10-16T07:27:18;14.80;99.90
7518;DHT22;3800;48.922;9.444;2022-10-16T07:29:46;14.90;99.90
7518;DHT22;3800;48.922;9.444;2022-10-16T07:32:13;14.90;99.90
7518;DHT22;3800;48.922;9.444;2022-10-16T07:34:41;15.00;99.90
7518;DHT22;3800;48.922;9.444;2022-10-16T07:37:09;15.00;99.90
7518;DHT22;3800;48.922;9.444;2022-10-16T07:39:37;15.00;99.90
7518;DHT22;3800;48.922;9.444;2022-10-16T07:42:05;15.00;99.90
7518;DHT22;3800;48.922;9.444;2022-10-16T07:44:32;15.00;99.90
7518;DHT22;3800;48.922;9.444;2022-10-16T07:47:00;15.00;99.90
7518;DHT22;3800;48.922;9.444;2022-10-16T07:49:28;15.10;99.90
7518;DHT22;3800;48.922;9.444;2022-10-16T07:51:56;15.10;99.90
7518;DHT22;3800;48.922;9.444;2022-10-16T07:54:23;15.10;99.90
7518;DHT22;3800;48.922;9.444;2022-10-16T07:56:51;15.20;99.90
7518;DHT22;3800;48.922;9.444;2022-10-16T07:59:18;15.10;99.90
7518;DHT22;3800;48.922;9.444;2022-10-16T08:01:46;15.20;99.90
7518;DHT22;3800;48.922;9.444;2022-10-16T08:04:14;15.20;99.90
7518;DHT22;3800;48.922;9.444;2022-10-16T08:06:42;15.20;99.90
7518;DHT22;3800;48.922;9.444;2022-10-16T08:09:10;15.20;99.90
7518;DHT22;3800;48.922;9.444;2022-10-16T08:11:37;15.20;99.90
7518;DHT22;3800;48.922;9.444;2022-10-16T08:14:05;15.20;99.90
7518;DHT22;3800;48.922;9.444;2022-10-16T08:16:33;15.30;99.90
7518;DHT22;3800;48.922;9.444;2022-10-16T08:19:01;15.30;99.90
7518;DHT22;3800;48.922;9.444;2022-10-16T08:21:29;15.40;99.90
7518;DHT22;3800;48.922;9.444;2022-10-16T08:23:57;15.40;99.90
7518;DHT22;3800;48.922;9.444;2022-10-16T08:26:27;15.50;99.90
7518;DHT22;3800;48.922;9.444;2022-10-16T08:28:55;15.60;99.90
7518;DHT22;3800;48.922;9.444;2022-10-16T08:31:23;15.70;99.90
7518;DHT22;3800;48.922;9.444;2022-10-16T08:33:51;15.70;99.90
7518;DHT22;3800;48.922;9.444;2022-10-16T08:36:19;15.80;99.90
7518;DHT22;3800;48.922;9.444;2022-10-16T08:38:50;15.90;99.90
7518;DHT22;3800;48.922;9.444;2022-10-16T08:41:32;16.00;99.90
7518;DHT22;3800;48.922;9.444;2022-10-16T08:47:18;16.30;99.90
7518;DHT22;3800;48.922;9.444;2022-10-16T08:49:51;16.40;99.90
7518;DHT22;3800;48.922;9.444;2022-10-16T08:52:12;16.50;99.90
7518;DHT22;3800;48.922;9.444;2022-10-16T08:54:42;16.60;99.90
7518;DHT22;3800;48.922;9.444;2022-10-16T08:57:20;16.60;99.90
7518;DHT22;3800;48.922;9.444;2022-10-16T08:59:47;16.80;99.90
7518;DHT22;3800;48.922;9.444;2022-10-16T09:02:35;16.90;99.90
7518;DHT22;3800;48.922;9.444;2022-10-16T09:05:02;17.00;99.90
7518;DHT22;3800;48.922;9.444;2022-10-16T09:07:41;17.10;99.90
7518;DHT22;3800;48.922;9.444;2022-10-16T09:10:24;17.20;99.90
7518;DHT22;3800;48.922;9.444;2022-10-16T09:15:55;17.30;99.90
7518;DHT22;3800;48.922;9.444;2022-10-16T09:18:30;17.40;99.90
7518;DHT22;3800;48.922;9.444;2022-10-16T09:21:10;17.40;99.90
7518;DHT22;3800;48.922;9.444;2022-10-16T09:23:39;17.50;99.90
7518;DHT22;3800;48.922;9.444;2022-10-16T09:26:09;17.50;99.90
7518;DHT22;3800;48.922;9.444;2022-10-16T09:28:34;17.50;99.90
7518;DHT22;3800;48.922;9.444;2022-10-16T09:31:02;17.50;99.90
7518;DHT22;3800;48.922;9.444;2022-10-16T09:33:30;17.50;99.90
7518;DHT22;3800;48.922;9.444;2022-10-16T09:35:57;17.50;99.90
7518;DHT22;3800;48.922;9.444;2022-10-16T09:38:28;17.50;99.90
7518;DHT22;3800;48.922;9.444;2022-10-16T09:40:56;17.70;99.90
7518;DHT22;3800;48.922;9.444;2022-10-16T09:43:27;17.80;99.90
7518;DHT22;3800;48.922;9.444;2022-10-16T09:45:58;17.80;99.90
7518;DHT22;3800;48.922;9.444;2022-10-16T09:48:26;17.90;99.90
7518;DHT22;3800;48.922;9.444;2022-10-16T09:50:57;17.90;99.90
7518;DHT22;3800;48.922;9.444;2022-10-16T09:53:25;18.00;99.90
7518;DHT22;3800;48.922;9.444;2022-10-16T09:55:53;18.00;99.90
7518;DHT22;3800;48.922;9.444;2022-10-16T09:58:21;18.10;99.90
7518;DHT22;3800;48.922;9.444;2022-10-16T10:00:50;18.00;99.90
7518;DHT22;3800;48.922;9.444;2022-10-16T10:03:30;18.10;99.90
7518;DHT22;3800;48.922;9.444;2022-10-16T10:05:51;18.20;99.90
7518;DHT22;3800;48.922;9.444;2022-10-16T10:08:19;18.20;99.90
7518;DHT22;3800;48.922;9.444;2022-10-16T10:10:47;18.20;99.90
7518;DHT22;3800;48.922;9.444;2022-10-16T10:13:23;18.20;99.90
7518;DHT22;3800;48.922;9.444;2022-10-16T10:15:51;18.20;99.90
7518;DHT22;3800;48.922;9.444;2022-10-16T10:18:21;18.40;99.90
7518;DHT22;3800;48.922;9.444;2022-10-16T10:20:57;18.50;99.90
7518;DHT22;3800;48.922;9.444;2022-10-16T10:23:25;18.60;99.90
7518;DHT22;3800;48.922;9.444;2022-10-16T10:26:00;18.80;99.90
7518;DHT22;3800;48.922;9.444;2022-10-16T10:33:57;18.60;99.90
7518;DHT22;3800;48.922;9.444;2022-10-16T10:36:32;18.60;99.90
7518;DHT22;3800;48.922;9.444;2022-10-16T10:39:01;18.60;99.90
7518;DHT22;3800;48.922;9.444;2022-10-16T10:44:48;18.60;99.90
7518;DHT22;3800;48.922;9.444;2022-10-16T10:47:27;18.70;99.90
7518;DHT22;3800;48.922;9.444;2022-10-16T10:50:35;18.80;99.90
7518;DHT22;3800;48.922;9.444;2022-10-16T10:52:49;18.90;99.90
7518;DHT22;3800;48.922;9.444;2022-10-16T11:01:14;19.10;99.90
7518;DHT22;3800;48.922;9.444;2022-10-16T11:05:07;19.30;99.90
7518;DHT22;3800;48.922;9.444;2022-10-16T11:06:57;19.30;99.90
7518;DHT22;3800;48.922;9.444;2022-10-16T11:09:25;19.60;99.90
7518;DHT22;3800;48.922;9.444;2022-10-16T11:11:57;19.70;99.90
7518;DHT22;3800;48.922;9.444;2022-10-16T11:14:29;19.80;99.90
7518;DHT22;3800;48.922;9.444;2022-10-16T11:17:31;19.80;99.90
7518;DHT22;3800;48.922;9.444;2022-10-16T11:19:51;19.90;99.90
7518;DHT22;3800;48.922;9.444;2022-10-16T11:22:27;20.00;99.90
7518;DHT22;3800;48.922;9.444;2022-10-16T11:27:55;20.30;99.90
7518;DHT22;3800;48.922;9.444;2022-10-16T11:30:24;20.20;99.90
7518;DHT22;3800;48.922;9.444;2022-10-16T11:33:15;20.20;99.90
7518;DHT22;3800;48.922;9.444;2022-10-16T11:35:42;20.20;99.90
7518;DHT22;3800;48.922;9.444;2022-10-16T11:38:10;20.10;99.90
7518;DHT22;3800;48.922;9.444;2022-10-16T11:40:37;20.10;99.90
7518;DHT22;3800;48.922;9.444;2022-10-16T11:45:49;19.80;99.90
7518;DHT22;3800;48.922;9.444;2022-10-16T11:48:24;19.70;99.90
7518;DHT22;3800;48.922;9.444;2022-10-16T11:51:05;19.70;99.90
7518;DHT22;3800;48.922;9.444;2022-10-16T11:53:38;19.70;99.90
7518;DHT22;3800;48.922;9.444;2022-10-16T11:56:03;19.90;99.90
7518;DHT22;3800;48.922;9.444;2022-10-16T11:58:37;19.80;99.90
7518;DHT22;3800;48.922;9.444;2022-10-16T12:01:17;19.80;99.90
7518;DHT22;3800;48.922;9.444;2022-10-16T12:06:30;19.90;99.90
7518;DHT22;3800;48.922;9.444;2022-10-16T12:08:54;19.90;99.90
7518;DHT22;3800;48.922;9.444;2022-10-16T12:11:35;19.80;99.90
7518;DHT22;3800;48.922;9.444;2022-10-16T12:16:56;19.90;99.90
7518;DHT22;3800;48.922;9.444;2022-10-16T12:19:26;19.80;99.90
7518;DHT22;3800;48.922;9.444;2022-10-16T12:21:52;19.90;99.90
7518;DHT22;3800;48.922;9.444;2022-10-16T12:24:27;19.90;99.90
7518;DHT22;3800;48.922;9.444;2022-10-16T12:26:49;19.80;99.90
7518;DHT22;3800;48.922;9.444;2022-10-16T12:29:31;20.00;99.90
7518;DHT22;3800;48.922;9.444;2022-10-16T12:31:59;20.00;99.90
7518;DHT22;3800;48.922;9.444;2022-10-16T12:34:34;20.00;99.90
7518;DHT22;3800;48.922;9.444;2022-10-16T12:37:07;20.00;99.90
7518;DHT22;3800;48.922;9.444;2022-10-16T12:39:27;19.90;99.90
7518;DHT22;3800;48.922;9.444;2022-10-16T12:42:01;20.00;99.90
7518;DHT22;3800;48.922;9.444;2022-10-16T12:44:31;20.10;99.90
7518;DHT22;3800;48.922;9.444;2022-10-16T12:46:55;20.10;99.90
7518;DHT22;3800;48.922;9.444;2022-10-16T12:49:35;20.10;99.90
7518;DHT22;3800;48.922;9.444;2022-10-16T12:52:00;20.20;99.90
7518;DHT22;3800;48.922;9.444;2022-10-16T12:54:31;20.20;99.90
7518;DHT22;3800;48.922;9.444;2022-10-16T12:57:12;20.10;99.90
7518;DHT22;3800;48.922;9.444;2022-10-16T12:59:40;20.30;99.90
7518;DHT22;3800;48.922;9.444;2022-10-16T13:05:30;20.50;99.90
7518;DHT22;3800;48.922;9.444;2022-10-16T13:10:22;20.50;99.90
7518;DHT22;3800;48.922;9.444;2022-10-16T13:13:13;20.50;99.90
7518;DHT22;3800;48.922;9.444;2022-10-16T13:16:16;20.50;99.90
7518;DHT22;3800;48.922;9.444;2022-10-16T13:18:51;20.50;99.90
7518;DHT22;3800;48.922;9.444;2022-10-16T13:24:05;20.40;99.90
7518;DHT22;3800;48.922;9.444;2022-10-16T13:26:44;20.30;99.90
7518;DHT22;3800;48.922;9.444;2022-10-16T13:29:09;20.30;99.90
7518;DHT22;3800;48.922;9.444;2022-10-16T13:31:39;20.40;99.90
7518;DHT22;3800;48.922;9.444;2022-10-16T13:34:10;20.30;99.90
7518;DHT22;3800;48.922;9.444;2022-10-16T13:36:35;20.40;99.90
7518;DHT22;3800;48.922;9.444;2022-10-16T13:39:10;20.40;99.90
7518;DHT22;3800;48.922;9.444;2022-10-16T13:41:37;20.40;99.90
7518;DHT22;3800;48.922;9.444;2022-10-16T13:44:05;20.50;99.90
7518;DHT22;3800;48.922;9.444;2022-10-16T13:46:33;20.40;99.90
7518;DHT22;3800;48.922;9.444;2022-10-16T13:49:12;20.40;99.90
7518;DHT22;3800;48.922;9.444;2022-10-16T13:51:32;20.40;99.90
7518;DHT22;3800;48.922;9.444;2022-10-16T13:54:00;20.40;99.90
7518;DHT22;3800;48.922;9.444;2022-10-16T13:56:29;20.40;99.90
7518;DHT22;3800;48.922;9.444;2022-10-16T13:59:02;20.40;99.90
7518;DHT22;3800;48.922;9.444;2022-10-16T14:01:34;20.60;99.90
7518;DHT22;3800;48.922;9.444;2022-10-16T14:04:04;20.60;99.90
7518;DHT22;3800;48.922;9.444;2022-10-16T14:06:32;20.60;99.90
7518;DHT22;3800;48.922;9.444;2022-10-16T14:09:04;20.60;99.90
7518;DHT22;3800;48.922;9.444;2022-10-16T14:11:29;20.60;99.90
7518;DHT22;3800;48.922;9.444;2022-10-16T14:13:57;20.60;99.90
7518;DHT22;3800;48.922;9.444;2022-10-16T14:16:27;20.70;99.90
7518;DHT22;3800;48.922;9.444;2022-10-16T14:18:57;20.80;99.90
7518;DHT22;3800;48.922;9.444;2022-10-16T14:21:24;20.80;99.90
7518;DHT22;3800;48.922;9.444;2022-10-16T14:23:52;20.80;99.90
7518;DHT22;3800;48.922;9.444;2022-10-16T14:26:20;20.80;99.90
7518;DHT22;3800;48.922;9.444;2022-10-16T14:28:47;20.70;99.90
7518;DHT22;3800;48.922;9.444;2022-10-16T14:31:33;20.60;99.90
7518;DHT22;3800;48.922;9.444;2022-10-16T14:34:00;20.60;99.90
7518;DHT22;3800;48.922;9.444;2022-10-16T14:36:27;20.60;99.90
7518;DHT22;3800;48.922;9.444;2022-10-16T14:39:03;20.60;99.90
7518;DHT22;3800;48.922;9.444;2022-10-16T14:41:31;20.50;99.90
7518;DHT22;3800;48.922;9.444;2022-10-16T14:44:03;20.50;99.90
7518;DHT22;3800;48.922;9.444;2022-10-16T14:46:32;20.50;99.90
7518;DHT22;3800;48.922;9.444;2022-10-16T14:49:01;20.50;99.90
7518;DHT22;3800;48.922;9.444;2022-10-16T14:51:28;20.50;99.90
7518;DHT22;3800;48.922;9.444;2022-10-16T14:53:55;20.50;99.90
7518;DHT22;3800;48.922;9.444;2022-10-16T14:56:23;20.50;99.90
7518;DHT22;3800;48.922;9.444;2022-10-16T14:58:51;20.40;99.90
7518;DHT22;3800;48.922;9.444;2022-10-16T15:01:18;20.40;99.90
7518;DHT22;3800;48.922;9.444;2022-10-16T15:03:46;20.40;99.90
7518;DHT22;3800;48.922;9.444;2022-10-16T15:06:14;20.40;99.90
7518;DHT22;3800;48.922;9.444;2022-10-16T15:08:41;20.40;99.90
7518;DHT22;3800;48.922;9.444;2022-10-16T15:11:12;20.40;99.90
7518;DHT22;3800;48.922;9.444;2022-10-16T15:13:38;20.40;99.90
7518;DHT22;3800;48.922;9.444;2022-10-16T15:16:10;20.40;99.90
7518;DHT22;3800;48.922;9.444;2022-10-16T15:18:35;20.40;99.90
7518;DHT22;3800;48.922;9.444;2022-10-16T15:21:04;20.40;99.90
7518;DHT22;3800;48.922;9.444;2022-10-16T15:23:31;20.40;99.90
7518;DHT22;3800;48.922;9.444;2022-10-16T15:25:59;20.40;99.90
7518;DHT22;3800;48.922;9.444;2022-10-16T15:28:27;20.40;99.90
7518;DHT22;3800;48.922;9.444;2022-10-16T15:30:55;20.40;99.90
7518;DHT22;3800;48.922;9.444;2022-10-16T15:33:24;20.40;99.90
7518;DHT22;3800;48.922;9.444;2022-10-16T15:35:51;20.40;99.90
7518;DHT22;3800;48.922;9.444;2022-10-16T15:38:19;20.30;99.90
7518;DHT22;3800;48.922;9.444;2022-10-16T15:40:46;20.30;99.90
7518;DHT22;3800;48.922;9.444;2022-10-16T15:43:13;20.30;99.90
7518;DHT22;3800;48.922;9.444;2022-10-16T15:45:41;20.30;99.90
7518;DHT22;3800;48.922;9.444;2022-10-16T15:48:11;20.20;99.90
7518;DHT22;3800;48.922;9.444;2022-10-16T15:50:38;20.20;99.90
7518;DHT22;3800;48.922;9.444;2022-10-16T15:53:07;20.10;99.90
7518;DHT22;3800;48.922;9.444;2022-10-16T15:55:34;20.10;99.90
7518;DHT22;3800;48.922;9.444;2022-10-16T15:58:02;20.00;99.90
7518;DHT22;3800;48.922;9.444;2022-10-16T16:00:29;20.00;99.90
7518;DHT22;3800;48.922;9.444;2022-10-16T16:02:57;19.90;99.90
7518;DHT22;3800;48.922;9.444;2022-10-16T16:05:25;19.90;99.90
7518;DHT22;3800;48.922;9.444;2022-10-16T16:07:52;19.80;99.90
7518;DHT22;3800;48.922;9.444;2022-10-16T16:10:20;19.70;99.90
7518;DHT22;3800;48.922;9.444;2022-10-16T16:12:48;19.70;99.90
7518;DHT22;3800;48.922;9.444;2022-10-16T16:15:16;19.70;99.90
7518;DHT22;3800;48.922;9.444;2022-10-16T16:17:43;19.60;99.90
7518;DHT22;3800;48.922;9.444;2022-10-16T16:20:11;19.60;99.90
7518;DHT22;3800;48.922;9.444;2022-10-16T16:22:39;19.50;99.90
7518;DHT22;3800;48.922;9.444;2022-10-16T16:25:07;19.40;99.90
7518;DHT22;3800;48.922;9.444;2022-10-16T16:27:35;19.40;99.90
7518;DHT22;3800;48.922;9.444;2022-10-16T16:30:03;19.30;99.90
7518;DHT22;3800;48.922;9.444;2022-10-16T16:32:31;19.20;99.90
7518;DHT22;3800;48.922;9.444;2022-10-16T16:34:59;19.20;99.90
7518;DHT22;3800;48.922;9.444;2022-10-16T16:37:27;19.10;99.90
7518;DHT22;3800;48.922;9.444;2022-10-16T16:39:54;19.00;99.90
7518;DHT22;3800;48.922;9.444;2022-10-16T16:42:24;18.90;99.90
7518;DHT22;3800;48.922;9.444;2022-10-16T16:44:52;18.90;99.90
7518;DHT22;3800;48.922;9.444;2022-10-16T16:47:19;18.80;99.90
7518;DHT22;3800;48.922;9.444;2022-10-16T16:49:47;18.80;99.90
7518;DHT22;3800;48.922;9.444;2022-10-16T16:52:15;18.70;99.90
7518;DHT22;3800;48.922;9.444;2022-10-16T16:54:42;18.70;99.90
7518;DHT22;3800;48.922;9.444;2022-10-16T16:57:12;18.60;99.90